• Join FlightAware (Why Join?)
  • Login
  • US Flag 
03:15AM EDT


 

Airport Tracker/Info


-or-


 

Live Flight TrackerFlight Track Log ✈ TAM3870 ✈ 26-Jun-2013 ✈ SBCF / CNF - SBBR / BSB

Flight Track Log - Related Links

Times and Time Zones

All times are in EDT time to prevent confusion due to time zone crossing. See the TAM3870 flight status page for this flight to view local times or setup timezone preferences in your user account.

Time Position Orientation Groundspeed Altitude Reporting Facility
EDT Latitude Longitude Course Direction KTS MPH feet Rate Location/Type
07:20AM -17.3123 -46.4256 314° West  Level Estimated
07:21AM -17.2436 -46.4969 315° West  Level Estimated
07:22AM -17.1748 -46.5681 315° West  Level Estimated
07:23AM -17.1061 -46.6393 315° West  Level Estimated
07:24AM -17.0372 -46.7104 315° West  Level Estimated
07:25AM -16.9684 -46.7815 315° West  Level Estimated
07:26AM -16.8995 -46.8525 315° West  Level Estimated
07:27AM -16.8306 -46.9234 315° West  Level Estimated
07:28AM -16.7617 -46.9943 315° West  Level Estimated
07:29AM -16.6928 -47.0652 315° West  Level Estimated
07:30AM -16.6238 -47.1360 315° West  Level Estimated
07:31AM -16.5548 -47.2068 315° West  Level Estimated
07:32AM -16.4858 -47.2775 316° Northwest  Level Estimated
07:33AM -16.4168 -47.3481 316° Northwest  Level Estimated
07:34AM -16.3477 -47.4187 316° Northwest  Level Estimated
07:35AM -16.2786 -47.4893 316° Northwest  Level Estimated
07:36AM -16.2095 -47.5598 316° Northwest  Level Estimated
07:37AM -16.1404 -47.6303 316° Northwest  Level Estimated
07:38AM -16.0712 -47.7007 316° Northwest  Level Estimated
07:39AM -16.0021 -47.7710 316° Northwest  Level Estimated
07:40AM -15.9329 -47.8413 316° Northwest  Level Estimated
07:41AM -15.8636 -47.9116 316° Northwest  Level Estimated
07:42AM -15.8626 -47.9127 316° Northwest  Level Estimated
07:43AM -15.8626 -47.9127 128° Southeast  Level Estimated
07:44AM -15.8626 -47.9127 128° Southeast  Level Estimated
07:45AM -15.8626 -47.9127 128° Southeast  Level Estimated
07:46AM -15.8626 -47.9127 128° Southeast  Level Estimated
07:47AM -15.8626 -47.9127 128° Southeast  Level Estimated
07:48AM -15.8626 -47.9127 128° Southeast  Level Estimated
07:49AM -15.8626 -47.9127 128° Southeast  Level Estimated
07:50AM -15.8626 -47.9127 128° Southeast  Level Estimated
07:51AM -15.8626 -47.9127 128° Southeast  Level Estimated
07:52AM -15.8626 -47.9127 128° Southeast  Level Estimated
07:53AM -15.8626 -47.9127 128° Southeast  Level Estimated
07:54AM -15.8626 -47.9127 128° Southeast  Level Estimated
07:55AM -15.8626 -47.9127 128° Southeast  Level Estimated
07:56AM -15.8626 -47.9127 128° Southeast  Level Estimated
07:57AM -15.8626 -47.9127 128° Southeast  Level Estimated